Aérodrome :
LOGIN :

S'inscrire | Disclaimer

   EN    FR    IT 

 










Légende :    VFR   VFR Marginal   IFR   IFR Intensif   IFR Très Intensif
Visi : 
Plafond : 
>= 8 km
>= 3000ft
5 à 8 km
1000 à 3000 ft
1500m à 5 km
500 à 1000 ft
800 à 1500m
200 à 500 ft
< 800m
< 200 ft
Symboles :   Orages  Brouillard  Fortes neiges  Fortes précipitations  Vent > 20 kt
SIGMETs :   Divers  Orages  Givrage  Turbulence  Onde Orograph.  Cendres Volcan.






- Altitude de l'aérodrome : 1411 ft
- Code IATA : GVA


LSGG - Genève Cointrin

DERNIER METAR :
  • 260520Z VRB01KT 9000 FEW050 SCT060 08/08 Q1024 NOSIG

METARs EXPIRÉS :
  • 260450Z VRB01KT 9000 FEW060 BKN080 08/08 Q1024 NOSIG
  • 260420Z VRB01KT 9000 FEW060 BKN080 09/08 Q1023 NOSIG
  • 260350Z 31002KT 9000 FEW050 BKN080 08/08 Q1023 NOSIG
  • 260320Z AUTO 00000KT 5000 FEW065 SCT080 08/08 Q1023 NOSIG
  • 260250Z AUTO VRB01KT 8000 -RA SCT060 BKN075 09/08 Q1023 NOSIG

TAF TAF LSGG
Valide du 26 à 03h jusqu'au 27 à 09h UTC


260225Z 2603/2709 VRB02KT 9999 BKN050 TX15/2615Z TN08/2604Z TN06/2704Z
BECMG 2615/2617 05008KT
ATIS : +41 22 417 40 81



MET'MAP, la Météo Aéronautique d'un coup d'oeil ! - Copyright ORBIFLY Décembre 2007 - Disclaimer

ORBIFLY MET'MAP TEAM :

Programmation & Développement : Alexandra Zaïnal
Sur une idée originale de : Baudouin d'Aumeries
Assistance à la programmation : Marc-Olivier Méhu
Soutien technique & logistique : Manuel Goepfert

Contact : metmap@orbifly.com




SOURCES & CREDITS :

   NOAA